createdAt,value
2023-04-17T00:04:38.731Z,23.1
2023-04-17T00:10:31.950Z,22.9
2023-04-17T00:16:37.287Z,22.9
2023-04-17T00:22:13.869Z,24.4
2023-04-17T00:27:34.982Z,23.9
2023-04-17T00:33:27.439Z,23.3
2023-04-17T00:39:18.397Z,23
2023-04-17T00:45:10.115Z,22.8
2023-04-17T00:51:02.081Z,22.8
2023-04-17T00:56:53.249Z,24.3
2023-04-17T01:02:47.038Z,23.9
2023-04-17T01:08:25.192Z,23.3
2023-04-17T01:14:00.582Z,23.1
2023-04-17T01:19:52.703Z,22.9
2023-04-17T01:25:44.285Z,23
2023-04-17T01:31:35.459Z,24.5
2023-04-17T01:37:11.804Z,24
2023-04-17T01:43:03.243Z,23.4
2023-04-17T01:48:39.804Z,23.1
2023-04-17T01:54:31.513Z,22.8
2023-04-17T02:00:07.855Z,22.8
2023-04-17T02:05:45.373Z,24.4
2023-04-17T02:11:37.733Z,23.9
2023-04-17T02:17:13.780Z,23.3
2023-04-17T02:22:50.094Z,23
2023-04-17T02:28:42.095Z,22.8
2023-04-17T02:34:34.116Z,22.9
2023-04-17T02:40:25.098Z,24.3
2023-04-17T02:46:16.915Z,23.8
2023-04-17T02:51:53.436Z,23.2
2023-04-17T02:57:44.870Z,23.1
2023-04-17T03:03:38.243Z,22.8
2023-04-17T03:09:30.489Z,22.8
2023-04-17T03:15:23.837Z,24.7
2023-04-17T03:21:16.449Z,24
2023-04-17T03:26:52.569Z,23.3
2023-04-17T03:32:46.404Z,22.9
2023-04-17T03:38:23.074Z,22.8
2023-04-17T03:43:59.736Z,23
2023-04-17T03:49:51.017Z,25.1
2023-04-17T03:55:27.831Z,24.4
2023-04-17T04:01:03.941Z,23.4
2023-04-17T04:06:56.640Z,22.9
2023-04-17T04:12:48.462Z,22.6
2023-04-17T04:18:25.285Z,22.5
2023-04-17T04:24:01.683Z,24.1
2023-04-17T04:29:54.729Z,24.3
2023-04-17T04:35:16.602Z,23.7
2023-04-17T04:40:55.681Z,23.3
2023-04-17T04:46:16.638Z,22.8
2023-04-17T04:51:53.151Z,22.5
2023-04-17T04:57:12.442Z,23.5
2023-04-17T05:02:50.150Z,24.3
2023-04-17T05:08:28.351Z,23.3
2023-04-17T05:14:04.081Z,22.9
2023-04-17T05:19:58.452Z,22.6
2023-04-17T05:25:49.845Z,22.4
2023-04-17T05:31:25.583Z,23.6
2023-04-17T05:37:02.418Z,24.4
2023-04-17T05:42:41.973Z,23.3
2023-04-17T05:48:17.762Z,22.9
2023-04-17T05:53:54.312Z,22.7
2023-04-17T05:59:45.708Z,22.5
2023-04-17T06:05:25.614Z,23.1
2023-04-17T06:11:04.538Z,24.5
2023-04-17T06:16:40.611Z,23.4
2023-04-17T06:22:18.271Z,22.9
2023-04-17T06:27:54.384Z,22.8
2023-04-17T06:33:30.565Z,22.6
2023-04-17T06:39:14.775Z,22.9
2023-04-17T06:44:36.016Z,24.6
2023-04-17T06:50:12.757Z,23.7
2023-04-17T06:55:48.182Z,23
2023-04-17T07:01:28.032Z,22.8
2023-04-17T07:06:50.618Z,22.6
2023-04-17T07:12:11.047Z,22.4
2023-04-17T07:17:48.753Z,23.9
2023-04-17T07:23:25.908Z,23.9
2023-04-17T07:29:02.156Z,23.1
2023-04-17T07:34:39.520Z,22.8
2023-04-17T07:40:19.290Z,22.6
2023-04-17T07:45:57.632Z,22.4
2023-04-17T07:51:22.346Z,22.3
2023-04-17T07:57:01.860Z,22.2
2023-04-17T08:02:23.073Z,24
2023-04-17T08:08:02.248Z,23.4
2023-04-17T08:13:36.245Z,22.9
2023-04-17T08:19:12.896Z,22.7
2023-04-17T08:24:52.753Z,22.5
2023-04-17T08:30:31.323Z,22.3
2023-04-17T08:36:41.303Z,22.2
2023-04-17T08:42:19.003Z,22
2023-04-17T08:48:11.571Z,23.2
2023-04-17T08:54:02.910Z,23.9
2023-04-17T08:59:24.414Z,23.1
2023-04-17T09:05:04.162Z,22.8
2023-04-17T09:10:40.145Z,22.5
2023-04-17T09:16:33.246Z,22.3
2023-04-17T09:21:54.516Z,22.2
2023-04-17T09:27:15.134Z,22.1
2023-04-17T09:32:37.259Z,21.9
2023-04-17T09:38:16.751Z,22.6
2023-04-17T09:44:08.422Z,23.9
2023-04-17T09:50:00.676Z,23.1
2023-04-17T09:55:38.516Z,22.8
2023-04-17T10:01:30.607Z,22.6
2023-04-17T10:07:24.325Z,22.3
2023-04-17T10:13:16.465Z,22.2
2023-04-17T10:19:08.754Z,22.1
2023-04-17T10:25:03.462Z,21.9
2023-04-17T10:30:58.064Z,23.1
2023-04-17T10:36:51.947Z,24
2023-04-17T10:42:29.228Z,22.9
2023-04-17T10:48:22.181Z,22.7
2023-04-17T10:54:15.114Z,22.6
2023-04-17T11:00:10.647Z,22.4
2023-04-17T11:05:49.480Z,22.3
2023-04-17T11:11:40.337Z,22.1
2023-04-17T11:17:20.335Z,21.9
2023-04-17T11:22:57.360Z,23.9
2023-04-17T11:28:33.787Z,23.7
2023-04-17T11:33:55.507Z,23
2023-04-17T11:39:32.577Z,22.7
2023-04-17T11:45:09.418Z,22.6
2023-04-17T11:51:01.765Z,22.6
2023-04-17T11:56:53.038Z,22.4
2023-04-17T12:02:45.732Z,23.3
2023-04-17T12:08:25.608Z,23.9
2023-04-17T12:14:17.633Z,23.1
2023-04-17T12:19:53.678Z,22.8
2023-04-17T12:25:45.605Z,22.6
2023-04-17T12:31:22.316Z,22.4
2023-04-17T12:36:58.862Z,22.3
2023-04-17T12:42:46.374Z,22.1
2023-04-17T12:48:42.564Z,22
2023-04-17T12:54:34.210Z,21.8
2023-04-17T13:00:25.960Z,21.7
2023-04-17T13:06:20.128Z,21.6
2023-04-17T13:11:40.444Z,21.5
2023-04-17T13:17:34.035Z,21.4
2023-04-17T13:23:26.001Z,21.4
2023-04-17T13:29:19.218Z,21.3
2023-04-17T13:35:14.469Z,21.2
2023-04-17T13:46:45.066Z,21.1
2023-04-17T13:52:37.570Z,21
2023-04-17T13:58:29.454Z,20.9
2023-04-17T14:04:09.934Z,20.9
2023-04-17T14:09:50.148Z,20.8
2023-04-17T14:15:41.383Z,20.8
2023-04-17T14:21:25.617Z,20.8
2023-04-17T14:27:02.337Z,20.8
2023-04-17T14:32:38.574Z,20.8
2023-04-17T14:38:20.072Z,20.8
2023-04-17T14:44:13.524Z,20.7
2023-04-17T14:50:17.007Z,20.6
2023-04-17T14:56:07.309Z,20.6
2023-04-17T15:01:59.853Z,20.6
2023-04-17T15:07:52.434Z,20.6
2023-04-17T15:13:44.406Z,20.5
2023-04-17T15:19:21.423Z,20.4
2023-04-17T15:25:13.030Z,20.4
2023-04-17T15:31:03.828Z,20.3
2023-04-17T15:36:55.579Z,20.3
2023-04-17T15:42:48.906Z,20.3
2023-04-17T15:48:42.780Z,20.3
2023-04-17T15:54:59.664Z,20.2
2023-04-17T16:00:50.868Z,20.2
2023-04-17T16:06:44.083Z,20.1
2023-04-17T16:12:20.700Z,20.1
2023-04-17T16:18:11.981Z,20.1
2023-04-17T16:24:03.498Z,20.1
2023-04-17T16:29:40.377Z,20
2023-04-17T16:35:32.611Z,20
2023-04-17T16:41:13.160Z,20
2023-04-17T16:47:30.089Z,20
2023-04-17T16:53:23.516Z,19.9
2023-04-17T16:59:14.353Z,19.9
2023-04-17T17:05:07.689Z,19.9
2023-04-17T17:10:13.161Z,19.9
2023-04-17T17:15:48.933Z,19.9
2023-04-17T17:21:41.311Z,19.9
2023-04-17T17:27:15.976Z,19.9
2023-04-17T17:32:52.789Z,19.9
2023-04-17T17:38:40.793Z,19.9
2023-04-17T17:44:32.388Z,19.9
2023-04-17T17:50:26.393Z,19.9
2023-04-17T17:56:05.087Z,19.9
2023-04-17T18:01:54.856Z,19.9
2023-04-17T18:07:33.711Z,19.9
2023-04-17T18:12:54.612Z,19.9
2023-04-17T18:18:31.593Z,19.9
2023-04-17T18:24:07.190Z,19.8
2023-04-17T18:29:43.420Z,19.8
2023-04-17T18:35:35.344Z,19.8
2023-04-17T18:41:14.157Z,19.7
2023-04-17T18:46:50.267Z,20.8
2023-04-17T18:52:27.352Z,23.3
2023-04-17T18:58:09.552Z,23.8
2023-04-17T19:03:16.300Z,22.6
2023-04-17T19:09:09.794Z,22.2
2023-04-17T19:15:02.599Z,21.9
2023-04-17T19:20:55.151Z,21.8
2023-04-17T19:26:48.394Z,21.6
2023-04-17T19:32:25.763Z,21.4
2023-04-17T19:38:03.303Z,21.4
2023-04-17T19:43:53.095Z,22.7
2023-04-17T19:49:48.299Z,23.5
2023-04-17T19:54:55.577Z,22.7
2023-04-17T20:00:49.169Z,22.3
2023-04-17T20:06:14.055Z,22
2023-04-17T20:12:06.461Z,21.9
2023-04-17T20:17:43.551Z,21.6
2023-04-17T20:23:37.511Z,21.6
2023-04-17T20:29:29.458Z,21.4
2023-04-17T20:35:22.090Z,21.8
2023-04-17T20:40:42.036Z,23.4
2023-04-17T20:46:34.640Z,22.9
2023-04-17T20:52:39.466Z,22.3
2023-04-17T20:58:30.538Z,22.1
2023-04-17T21:04:21.355Z,21.9
2023-04-17T21:09:58.364Z,21.9
2023-04-17T21:15:18.933Z,21.8
2023-04-17T21:20:55.674Z,21.7
2023-04-17T21:26:31.227Z,21.8
2023-04-17T21:32:07.091Z,22.6
2023-04-17T21:37:43.559Z,23.6
2023-04-17T21:43:37.406Z,22.8
2023-04-17T21:49:28.715Z,22.4
2023-04-17T21:55:20.826Z,22.3
2023-04-17T22:01:11.383Z,22.1
2023-04-17T22:07:03.696Z,21.9
2023-04-17T22:12:20.223Z,21.7
2023-04-17T22:18:12.194Z,21.6
2023-04-17T22:24:03.635Z,21.6
2023-04-17T22:29:39.968Z,23.6
2023-04-17T22:35:15.788Z,23.4
2023-04-17T22:41:06.654Z,22.8
2023-04-17T22:46:28.373Z,22.7
2023-04-17T22:52:05.073Z,22.3
2023-04-17T22:57:51.504Z,22.2
2023-04-17T23:03:44.227Z,21.9
2023-04-17T23:09:20.501Z,21.7
2023-04-17T23:14:56.558Z,21.6
2023-04-17T23:20:18.137Z,21.9
2023-04-17T23:25:44.168Z,23.8
2023-04-17T23:31:20.058Z,23.4
2023-04-17T23:36:56.949Z,22.9
2023-04-17T23:42:33.170Z,22.7
2023-04-17T23:48:25.653Z,22.4
2023-04-17T23:54:17.551Z,22
